sensor_id;sensor_type;location;lat;lon;timestamp;pressure;altitude;pressure_sealevel;temperature;humidity
22333;BME280;11334;36.986;-121.936;2023-04-07T00:00:12;101357.84;;;20.89;42.00
22333;BME280;11334;36.986;-121.936;2023-04-07T00:02:38;101352.84;;;20.79;42.45
22333;BME280;11334;36.986;-121.936;2023-04-07T00:05:04;101352.00;;;20.72;42.53
22333;BME280;11334;36.986;-121.936;2023-04-07T00:07:31;101354.91;;;20.64;42.29
22333;BME280;11334;36.986;-121.936;2023-04-07T00:09:57;101340.81;;;20.56;43.09
22333;BME280;11334;36.986;-121.936;2023-04-07T00:12:23;101350.50;;;20.38;43.12
22333;BME280;11334;36.986;-121.936;2023-04-07T00:14:50;101342.81;;;20.28;44.12
22333;BME280;11334;36.986;-121.936;2023-04-07T00:17:16;101345.88;;;20.13;44.13
22333;BME280;11334;36.986;-121.936;2023-04-07T00:19:42;101359.94;;;20.08;44.29
22333;BME280;11334;36.986;-121.936;2023-04-07T00:22:08;101353.53;;;20.03;44.08
22333;BME280;11334;36.986;-121.936;2023-04-07T00:24:35;101358.25;;;19.95;45.14
22333;BME280;11334;36.986;-121.936;2023-04-07T00:27:01;101352.03;;;19.88;45.50
22333;BME280;11334;36.986;-121.936;2023-04-07T00:29:27;101358.63;;;19.85;45.93
22333;BME280;11334;36.986;-121.936;2023-04-07T00:31:53;101351.16;;;19.81;46.38
22333;BME280;11334;36.986;-121.936;2023-04-07T00:34:20;101352.31;;;19.65;46.44
22333;BME280;11334;36.986;-121.936;2023-04-07T00:36:46;101358.03;;;19.56;46.81
22333;BME280;11334;36.986;-121.936;2023-04-07T00:39:17;101346.47;;;19.56;46.43
22333;BME280;11334;36.986;-121.936;2023-04-07T00:41:44;101352.59;;;19.43;46.09
22333;BME280;11334;36.986;-121.936;2023-04-07T00:44:11;101348.41;;;19.34;46.21
22333;BME280;11334;36.986;-121.936;2023-04-07T00:46:38;101351.47;;;19.25;46.20
22333;BME280;11334;36.986;-121.936;2023-04-07T00:49:05;101350.00;;;19.23;46.48
22333;BME280;11334;36.986;-121.936;2023-04-07T00:51:32;101346.19;;;19.11;46.81
22333;BME280;11334;36.986;-121.936;2023-04-07T00:53:59;101341.59;;;19.05;47.03
22333;BME280;11334;36.986;-121.936;2023-04-07T00:56:26;101332.03;;;18.96;47.99
22333;BME280;11334;36.986;-121.936;2023-04-07T00:58:52;101336.63;;;19.02;47.97
22333;BME280;11334;36.986;-121.936;2023-04-07T01:01:23;101347.13;;;18.97;49.21
22333;BME280;11334;36.986;-121.936;2023-04-07T01:04:01;101344.19;;;18.92;49.30
22333;BME280;11334;36.986;-121.936;2023-04-07T01:06:34;101349.69;;;18.84;50.32
22333;BME280;11334;36.986;-121.936;2023-04-07T01:09:12;101348.69;;;18.85;50.70
22333;BME280;11334;36.986;-121.936;2023-04-07T01:12:11;101346.81;;;18.65;51.71
22333;BME280;11334;36.986;-121.936;2023-04-07T01:14:46;101344.38;;;18.70;51.84
22333;BME280;11334;36.986;-121.936;2023-04-07T01:17:16;101354.44;;;18.62;52.86
22333;BME280;11334;36.986;-121.936;2023-04-07T01:19:57;101354.38;;;18.55;53.01
22333;BME280;11334;36.986;-121.936;2023-04-07T01:22:44;101359.69;;;18.49;54.43
22333;BME280;11334;36.986;-121.936;2023-04-07T01:29:03;101351.31;;;18.37;56.30
22333;BME280;11334;36.986;-121.936;2023-04-07T01:31:33;101351.28;;;18.31;56.43
22333;BME280;11334;36.986;-121.936;2023-04-07T01:34:03;101349.28;;;18.19;57.31
22333;BME280;11334;36.986;-121.936;2023-04-07T01:36:30;101351.06;;;18.12;57.78
22333;BME280;11334;36.986;-121.936;2023-04-07T01:38:58;101364.00;;;18.08;57.64
22333;BME280;11334;36.986;-121.936;2023-04-07T01:41:25;101335.00;;;17.83;58.72
22333;BME280;11334;36.986;-121.936;2023-04-07T01:43:53;101370.22;;;17.95;59.26
22333;BME280;11334;36.986;-121.936;2023-04-07T01:46:20;101372.63;;;17.90;59.88
22333;BME280;11334;36.986;-121.936;2023-04-07T01:48:47;101368.88;;;17.84;60.03
22333;BME280;11334;36.986;-121.936;2023-04-07T01:51:15;101354.38;;;17.65;60.16
22333;BME280;11334;36.986;-121.936;2023-04-07T01:53:45;101372.94;;;17.66;60.24
22333;BME280;11334;36.986;-121.936;2023-04-07T01:56:12;101375.63;;;17.66;60.04
22333;BME280;11334;36.986;-121.936;2023-04-07T01:58:38;101360.13;;;17.62;60.15
22333;BME280;11334;36.986;-121.936;2023-04-07T02:01:05;101370.91;;;17.54;60.50
22333;BME280;11334;36.986;-121.936;2023-04-07T02:03:45;101378.41;;;17.44;61.71
22333;BME280;11334;36.986;-121.936;2023-04-07T02:06:17;101361.06;;;17.40;62.51
22333;BME280;11334;36.986;-121.936;2023-04-07T02:08:49;101361.97;;;17.18;63.60
22333;BME280;11334;36.986;-121.936;2023-04-07T02:11:17;101367.44;;;17.25;62.69
22333;BME280;11334;36.986;-121.936;2023-04-07T02:13:46;101364.81;;;17.17;63.59
22333;BME280;11334;36.986;-121.936;2023-04-07T02:16:13;101350.47;;;17.10;62.88
22333;BME280;11334;36.986;-121.936;2023-04-07T02:18:40;101357.47;;;16.97;63.06
22333;BME280;11334;36.986;-121.936;2023-04-07T02:21:08;101348.69;;;16.88;62.13
22333;BME280;11334;36.986;-121.936;2023-04-07T02:23:36;101352.06;;;16.82;62.20
22333;BME280;11334;36.986;-121.936;2023-04-07T02:26:03;101358.63;;;16.80;62.21
22333;BME280;11334;36.986;-121.936;2023-04-07T02:28:29;101359.19;;;16.76;62.18
22333;BME280;11334;36.986;-121.936;2023-04-07T02:30:55;101363.34;;;16.78;62.06
22333;BME280;11334;36.986;-121.936;2023-04-07T02:33:21;101362.31;;;16.79;62.49
22333;BME280;11334;36.986;-121.936;2023-04-07T02:35:48;101361.28;;;16.66;62.70
22333;BME280;11334;36.986;-121.936;2023-04-07T02:38:14;101366.34;;;16.61;63.29
22333;BME280;11334;36.986;-121.936;2023-04-07T02:40:40;101368.72;;;16.56;64.16
22333;BME280;11334;36.986;-121.936;2023-04-07T02:43:06;101372.94;;;16.50;64.48
22333;BME280;11334;36.986;-121.936;2023-04-07T02:45:33;101369.13;;;16.45;65.00
22333;BME280;11334;36.986;-121.936;2023-04-07T02:47:59;101366.09;;;16.48;65.70
22333;BME280;11334;36.986;-121.936;2023-04-07T02:50:25;101380.25;;;16.34;66.33
22333;BME280;11334;36.986;-121.936;2023-04-07T02:52:51;101367.63;;;16.28;66.71
22333;BME280;11334;36.986;-121.936;2023-04-07T02:55:18;101360.22;;;16.30;66.80
22333;BME280;11334;36.986;-121.936;2023-04-07T02:57:44;101367.06;;;16.33;66.94
22333;BME280;11334;36.986;-121.936;2023-04-07T03:00:10;101370.97;;;16.22;68.00
22333;BME280;11334;36.986;-121.936;2023-04-07T03:02:37;101370.97;;;16.22;68.07
22333;BME280;11334;36.986;-121.936;2023-04-07T03:05:03;101354.16;;;16.14;68.30
22333;BME280;11334;36.986;-121.936;2023-04-07T03:07:29;101350.34;;;16.09;68.73
22333;BME280;11334;36.986;-121.936;2023-04-07T03:09:56;101351.31;;;16.08;69.13
22333;BME280;11334;36.986;-121.936;2023-04-07T03:12:23;101355.84;;;16.07;69.27
22333;BME280;11334;36.986;-121.936;2023-04-07T03:14:49;101364.22;;;16.04;69.76
22333;BME280;11334;36.986;-121.936;2023-04-07T03:17:15;101363.72;;;16.01;70.18
22333;BME280;11334;36.986;-121.936;2023-04-07T03:19:41;101356.25;;;15.96;70.25
22333;BME280;11334;36.986;-121.936;2023-04-07T03:22:08;101366.59;;;15.99;70.42
22333;BME280;11334;36.986;-121.936;2023-04-07T03:24:34;101362.28;;;15.90;70.93
22333;BME280;11334;36.986;-121.936;2023-04-07T03:27:00;101370.53;;;15.81;72.17
22333;BME280;11334;36.986;-121.936;2023-04-07T03:29:26;101377.91;;;15.71;73.57
22333;BME280;11334;36.986;-121.936;2023-04-07T03:31:53;101385.72;;;15.80;73.46
22333;BME280;11334;36.986;-121.936;2023-04-07T03:34:19;101380.44;;;15.73;74.45
22333;BME280;11334;36.986;-121.936;2023-04-07T03:36:45;101388.94;;;15.68;75.50
22333;BME280;11334;36.986;-121.936;2023-04-07T03:39:11;101397.47;;;15.64;75.90
22333;BME280;11334;36.986;-121.936;2023-04-07T03:41:38;101394.72;;;15.49;77.14
22333;BME280;11334;36.986;-121.936;2023-04-07T03:44:04;101414.72;;;15.53;77.24
22333;BME280;11334;36.986;-121.936;2023-04-07T03:46:30;101411.38;;;15.51;77.15
22333;BME280;11334;36.986;-121.936;2023-04-07T03:48:56;101412.41;;;15.50;77.44
22333;BME280;11334;36.986;-121.936;2023-04-07T03:51:23;101409.72;;;15.50;76.77
22333;BME280;11334;36.986;-121.936;2023-04-07T03:53:49;101409.09;;;15.41;77.38
22333;BME280;11334;36.986;-121.936;2023-04-07T03:56:16;101411.75;;;15.41;77.17
22333;BME280;11334;36.986;-121.936;2023-04-07T03:58:42;101417.16;;;15.25;78.46
22333;BME280;11334;36.986;-121.936;2023-04-07T04:01:09;101403.25;;;15.29;78.05
22333;BME280;11334;36.986;-121.936;2023-04-07T04:03:35;101416.47;;;15.31;77.65
22333;BME280;11334;36.986;-121.936;2023-04-07T04:06:01;101419.28;;;15.29;76.86
22333;BME280;11334;36.986;-121.936;2023-04-07T04:08:28;101423.47;;;15.24;77.25
22333;BME280;11334;36.986;-121.936;2023-04-07T04:10:54;101427.81;;;15.01;78.20
22333;BME280;11334;36.986;-121.936;2023-04-07T04:13:20;101424.16;;;15.02;77.34
22333;BME280;11334;36.986;-121.936;2023-04-07T04:15:46;101430.50;;;15.17;75.47
22333;BME280;11334;36.986;-121.936;2023-04-07T04:18:13;101424.19;;;15.10;74.25
22333;BME280;11334;36.986;-121.936;2023-04-07T04:20:39;101433.97;;;15.02;74.27
22333;BME280;11334;36.986;-121.936;2023-04-07T04:23:05;101432.50;;;14.99;72.99
22333;BME280;11334;36.986;-121.936;2023-04-07T04:25:32;101441.84;;;14.95;73.15
22333;BME280;11334;36.986;-121.936;2023-04-07T04:27:58;101442.00;;;14.94;73.17
22333;BME280;11334;36.986;-121.936;2023-04-07T04:30:24;101441.84;;;14.95;73.23
22333;BME280;11334;36.986;-121.936;2023-04-07T04:32:50;101444.19;;;14.90;73.05
22333;BME280;11334;36.986;-121.936;2023-04-07T04:35:17;101435.66;;;14.87;73.47
22333;BME280;11334;36.986;-121.936;2023-04-07T04:37:43;101416.81;;;14.88;72.76
22333;BME280;11334;36.986;-121.936;2023-04-07T04:40:09;101423.19;;;14.87;72.97
22333;BME280;11334;36.986;-121.936;2023-04-07T04:42:36;101427.34;;;14.90;73.96
22333;BME280;11334;36.986;-121.936;2023-04-07T04:45:02;101435.50;;;14.81;74.58
22333;BME280;11334;36.986;-121.936;2023-04-07T04:47:29;101432.66;;;14.74;75.13
22333;BME280;11334;36.986;-121.936;2023-04-07T04:49:55;101431.00;;;14.73;75.56
22333;BME280;11334;36.986;-121.936;2023-04-07T04:52:21;101440.50;;;14.76;75.87
22333;BME280;11334;36.986;-121.936;2023-04-07T04:54:47;101441.84;;;14.64;76.66
22333;BME280;11334;36.986;-121.936;2023-04-07T04:57:13;101444.84;;;14.69;76.93
22333;BME280;11334;36.986;-121.936;2023-04-07T04:59:40;101441.69;;;14.65;76.75
22333;BME280;11334;36.986;-121.936;2023-04-07T05:02:07;101441.97;;;14.62;76.96
22333;BME280;11334;36.986;-121.936;2023-04-07T05:04:33;101438.16;;;14.57;77.18
22333;BME280;11334;36.986;-121.936;2023-04-07T05:06:59;101429.66;;;14.53;78.03
22333;BME280;11334;36.986;-121.936;2023-04-07T05:09:26;101444.78;;;14.45;78.37
22333;BME280;11334;36.986;-121.936;2023-04-07T05:11:52;101442.31;;;14.44;78.72
22333;BME280;11334;36.986;-121.936;2023-04-07T05:14:18;101444.78;;;14.45;78.58
22333;BME280;11334;36.986;-121.936;2023-04-07T05:16:44;101426.47;;;14.42;79.08
22333;BME280;11334;36.986;-121.936;2023-04-07T05:19:10;101423.66;;;14.44;78.47
22333;BME280;11334;36.986;-121.936;2023-04-07T05:21:37;101420.81;;;14.45;78.97
22333;BME280;11334;36.986;-121.936;2023-04-07T05:24:03;101424.47;;;14.44;79.14
22333;BME280;11334;36.986;-121.936;2023-04-07T05:26:29;101422.16;;;14.41;79.30
22333;BME280;11334;36.986;-121.936;2023-04-07T05:28:55;101423.13;;;14.40;79.78
22333;BME280;11334;36.986;-121.936;2023-04-07T05:31:22;101437.13;;;14.42;79.67
22333;BME280;11334;36.986;-121.936;2023-04-07T05:33:48;101430.16;;;14.41;79.98
22333;BME280;11334;36.986;-121.936;2023-04-07T05:36:14;101427.97;;;14.45;80.50
22333;BME280;11334;36.986;-121.936;2023-04-07T05:38:41;101434.13;;;14.45;80.60
22333;BME280;11334;36.986;-121.936;2023-04-07T05:41:07;101430.28;;;14.32;81.92
22333;BME280;11334;36.986;-121.936;2023-04-07T05:43:33;101437.81;;;14.36;82.33
22333;BME280;11334;36.986;-121.936;2023-04-07T05:45:59;101439.78;;;14.34;82.47
22333;BME280;11334;36.986;-121.936;2023-04-07T05:48:26;101449.75;;;14.24;83.58
22333;BME280;11334;36.986;-121.936;2023-04-07T05:50:52;101453.28;;;14.33;83.61
22333;BME280;11334;36.986;-121.936;2023-04-07T05:53:18;101452.44;;;14.24;83.70
22333;BME280;11334;36.986;-121.936;2023-04-07T05:55:44;101458.72;;;14.16;85.00
22333;BME280;11334;36.986;-121.936;2023-04-07T05:58:10;101464.94;;;14.24;84.88
22333;BME280;11334;36.986;-121.936;2023-04-07T06:00:37;101472.44;;;14.28;84.26
22333;BME280;11334;36.986;-121.936;2023-04-07T06:03:03;101471.44;;;14.29;84.18
22333;BME280;11334;36.986;-121.936;2023-04-07T06:05:29;101475.09;;;14.28;84.11
22333;BME280;11334;36.986;-121.936;2023-04-07T06:07:55;101478.75;;;14.27;84.00
22333;BME280;11334;36.986;-121.936;2023-04-07T06:10:22;101479.75;;;14.26;84.28
22333;BME280;11334;36.986;-121.936;2023-04-07T06:12:48;101479.44;;;14.29;84.16
22333;BME280;11334;36.986;-121.936;2023-04-07T06:15:14;101477.25;;;14.33;83.54
22333;BME280;11334;36.986;-121.936;2023-04-07T06:17:41;101470.13;;;14.33;82.71
22333;BME280;11334;36.986;-121.936;2023-04-07T06:20:08;101468.63;;;14.39;80.91
22333;BME280;11334;36.986;-121.936;2023-04-07T06:22:35;101462.28;;;14.40;80.21
22333;BME280;11334;36.986;-121.936;2023-04-07T06:25:01;101473.63;;;14.34;80.27
22333;BME280;11334;36.986;-121.936;2023-04-07T06:27:27;101466.91;;;14.22;80.72
22333;BME280;11334;36.986;-121.936;2023-04-07T06:29:55;101463.09;;;14.24;80.14
22333;BME280;11334;36.986;-121.936;2023-04-07T06:32:21;101452.91;;;14.20;79.88
22333;BME280;11334;36.986;-121.936;2023-04-07T06:34:47;101449.91;;;14.23;79.60
22333;BME280;11334;36.986;-121.936;2023-04-07T06:37:13;101446.25;;;14.16;79.10
22333;BME280;11334;36.986;-121.936;2023-04-07T06:39:44;101436.88;;;14.04;79.18
22333;BME280;11334;36.986;-121.936;2023-04-07T06:42:10;101447.41;;;14.14;78.58
22333;BME280;11334;36.986;-121.936;2023-04-07T06:44:36;101444.91;;;14.12;77.90
22333;BME280;11334;36.986;-121.936;2023-04-07T06:47:03;101437.91;;;14.11;77.78
22333;BME280;11334;36.986;-121.936;2023-04-07T06:49:29;101447.34;;;14.06;77.69
22333;BME280;11334;36.986;-121.936;2023-04-07T06:51:55;101446.19;;;14.08;77.12
22333;BME280;11334;36.986;-121.936;2023-04-07T06:54:21;101441.19;;;14.05;78.34
22333;BME280;11334;36.986;-121.936;2023-04-07T06:56:48;101443.19;;;14.03;78.44
22333;BME280;11334;36.986;-121.936;2023-04-07T06:59:14;101427.16;;;13.95;78.40
22333;BME280;11334;36.986;-121.936;2023-04-07T07:01:40;101442.84;;;13.98;78.96
22333;BME280;11334;36.986;-121.936;2023-04-07T07:04:06;101439.66;;;13.95;80.19
22333;BME280;11334;36.986;-121.936;2023-04-07T07:06:33;101450.63;;;13.92;80.88
22333;BME280;11334;36.986;-121.936;2023-04-07T07:08:59;101431.97;;;13.92;80.43
22333;BME280;11334;36.986;-121.936;2023-04-07T07:11:27;101438.38;;;13.99;80.01
22333;BME280;11334;36.986;-121.936;2023-04-07T07:13:53;101440.72;;;14.02;80.07
22333;BME280;11334;36.986;-121.936;2023-04-07T07:16:20;101440.84;;;14.00;80.39
22333;BME280;11334;36.986;-121.936;2023-04-07T07:18:49;101433.50;;;13.94;80.44
22333;BME280;11334;36.986;-121.936;2023-04-07T07:21:16;101433.63;;;13.93;81.08
22333;BME280;11334;36.986;-121.936;2023-04-07T07:23:43;101438.47;;;13.89;81.89
22333;BME280;11334;36.986;-121.936;2023-04-07T07:26:10;101432.78;;;13.85;81.54
22333;BME280;11334;36.986;-121.936;2023-04-07T07:28:36;101432.09;;;13.83;81.33
22333;BME280;11334;36.986;-121.936;2023-04-07T07:31:10;101441.28;;;13.88;81.86
22333;BME280;11334;36.986;-121.936;2023-04-07T07:33:39;101433.78;;;13.84;81.88
22333;BME280;11334;36.986;-121.936;2023-04-07T07:36:06;101442.28;;;13.87;81.50
22333;BME280;11334;36.986;-121.936;2023-04-07T07:38:33;101430.91;;;13.77;80.71
22333;BME280;11334;36.986;-121.936;2023-04-07T07:41:01;101428.41;;;13.76;82.38
22333;BME280;11334;36.986;-121.936;2023-04-07T07:43:28;101430.72;;;13.71;82.40
22333;BME280;11334;36.986;-121.936;2023-04-07T07:45:54;101436.38;;;13.68;83.13
22333;BME280;11334;36.986;-121.936;2023-04-07T07:48:20;101436.38;;;13.68;83.02
22333;BME280;11334;36.986;-121.936;2023-04-07T07:50:47;101438.00;;;13.61;82.62
22333;BME280;11334;36.986;-121.936;2023-04-07T07:53:14;101441.44;;;13.54;83.55
22333;BME280;11334;36.986;-121.936;2023-04-07T07:55:40;101449.50;;;13.61;83.08
22333;BME280;11334;36.986;-121.936;2023-04-07T07:58:06;101457.31;;;13.63;82.74
22333;BME280;11334;36.986;-121.936;2023-04-07T08:00:33;101432.84;;;13.59;82.64
22333;BME280;11334;36.986;-121.936;2023-04-07T08:02:59;101443.63;;;13.58;83.61
22333;BME280;11334;36.986;-121.936;2023-04-07T08:05:25;101442.81;;;13.57;83.63
22333;BME280;11334;36.986;-121.936;2023-04-07T08:07:52;101445.31;;;13.59;83.02
22333;BME280;11334;36.986;-121.936;2023-04-07T08:10:20;101448.13;;;13.57;82.91
22333;BME280;11334;36.986;-121.936;2023-04-07T08:12:47;101453.47;;;13.57;82.92
22333;BME280;11334;36.986;-121.936;2023-04-07T08:15:14;101460.09;;;13.54;83.34
22333;BME280;11334;36.986;-121.936;2023-04-07T08:17:40;101446.78;;;13.54;83.11
22333;BME280;11334;36.986;-121.936;2023-04-07T08:20:08;101453.88;;;13.45;83.17
22333;BME280;11334;36.986;-121.936;2023-04-07T08:22:36;101458.78;;;13.57;82.83
22333;BME280;11334;36.986;-121.936;2023-04-07T08:25:02;101456.44;;;13.55;82.85
22333;BME280;11334;36.986;-121.936;2023-04-07T08:27:28;101447.09;;;13.51;83.15
22333;BME280;11334;36.986;-121.936;2023-04-07T08:30:03;101429.13;;;13.53;83.54
22333;BME280;11334;36.986;-121.936;2023-04-07T08:32:42;101430.44;;;13.49;83.66
22333;BME280;11334;36.986;-121.936;2023-04-07T08:35:08;101426.94;;;13.48;84.30
22333;BME280;11334;36.986;-121.936;2023-04-07T08:37:36;101427.63;;;13.50;83.64
22333;BME280;11334;36.986;-121.936;2023-04-07T08:40:03;101417.66;;;13.52;83.98
22333;BME280;11334;36.986;-121.936;2023-04-07T08:42:31;101420.81;;;13.56;84.01
22333;BME280;11334;36.986;-121.936;2023-04-07T08:45:03;101417.63;;;13.44;84.66
22333;BME280;11334;36.986;-121.936;2023-04-07T08:47:31;101425.63;;;13.44;84.37
22333;BME280;11334;36.986;-121.936;2023-04-07T08:50:03;101432.94;;;13.50;84.14
22333;BME280;11334;36.986;-121.936;2023-04-07T08:55:03;101428.91;;;13.46;84.69
22333;BME280;11334;36.986;-121.936;2023-04-07T08:57:35;101427.41;;;13.44;85.01
22333;BME280;11334;36.986;-121.936;2023-04-07T09:00:03;101437.41;;;13.42;85.32
22333;BME280;11334;36.986;-121.936;2023-04-07T09:02:34;101437.41;;;13.42;85.78
22333;BME280;11334;36.986;-121.936;2023-04-07T09:05:03;101422.06;;;13.36;85.44
22333;BME280;11334;36.986;-121.936;2023-04-07T09:07:31;101452.28;;;13.52;84.77
22333;BME280;11334;36.986;-121.936;2023-04-07T09:09:58;101446.03;;;13.44;85.72
22333;BME280;11334;36.986;-121.936;2023-04-07T09:12:26;101441.38;;;13.38;86.31
22333;BME280;11334;36.986;-121.936;2023-04-07T09:14:53;101441.50;;;13.36;86.53
22333;BME280;11334;36.986;-121.936;2023-04-07T09:17:20;101436.88;;;13.38;86.68
22333;BME280;11334;36.986;-121.936;2023-04-07T09:19:47;101420.09;;;13.46;86.28
22333;BME280;11334;36.986;-121.936;2023-04-07T09:22:13;101424.97;;;13.50;86.32
22333;BME280;11334;36.986;-121.936;2023-04-07T09:24:41;101424.13;;;13.50;86.49
22333;BME280;11334;36.986;-121.936;2023-04-07T09:27:15;101418.81;;;13.50;86.50
22333;BME280;11334;36.986;-121.936;2023-04-07T09:29:43;101406.66;;;13.47;86.60
22333;BME280;11334;36.986;-121.936;2023-04-07T09:32:10;101399.28;;;13.41;86.19
22333;BME280;11334;36.986;-121.936;2023-04-07T09:34:39;101408.66;;;13.53;86.06
22333;BME280;11334;36.986;-121.936;2023-04-07T09:37:07;101412.47;;;13.51;86.28
22333;BME280;11334;36.986;-121.936;2023-04-07T09:39:50;101408.34;;;13.56;86.08
22333;BME280;11334;36.986;-121.936;2023-04-07T09:42:16;101407.84;;;13.53;86.86
22333;BME280;11334;36.986;-121.936;2023-04-07T09:44:43;101406.34;;;13.50;87.29
22333;BME280;11334;36.986;-121.936;2023-04-07T09:47:09;101405.50;;;13.50;87.65
22333;BME280;11334;36.986;-121.936;2023-04-07T09:49:53;101401.69;;;13.52;87.30
22333;BME280;11334;36.986;-121.936;2023-04-07T09:52:50;101404.13;;;13.46;87.98
22333;BME280;11334;36.986;-121.936;2023-04-07T09:55:23;101389.97;;;13.37;87.31
22333;BME280;11334;36.986;-121.936;2023-04-07T09:57:49;101410.50;;;13.53;86.84
22333;BME280;11334;36.986;-121.936;2023-04-07T10:00:16;101399.50;;;13.48;87.73
22333;BME280;11334;36.986;-121.936;2023-04-07T10:02:43;101404.16;;;13.54;87.22
22333;BME280;11334;36.986;-121.936;2023-04-07T10:05:10;101397.34;;;13.51;87.78
22333;BME280;11334;36.986;-121.936;2023-04-07T10:07:36;101391.88;;;13.53;87.79
22333;BME280;11334;36.986;-121.936;2023-04-07T10:10:03;101392.38;;;13.56;87.91
22333;BME280;11334;36.986;-121.936;2023-04-07T10:12:35;101394.06;;;13.57;88.21
22333;BME280;11334;36.986;-121.936;2023-04-07T10:15:03;101394.88;;;13.57;88.40
22333;BME280;11334;36.986;-121.936;2023-04-07T10:17:30;101400.41;;;13.64;88.12
22333;BME280;11334;36.986;-121.936;2023-04-07T10:19:58;101402.22;;;13.63;88.86
22333;BME280;11334;36.986;-121.936;2023-04-07T10:22:26;101390.91;;;13.61;90.09
22333;BME280;11334;36.986;-121.936;2023-04-07T10:25:10;101397.53;;;13.57;91.79
22333;BME280;11334;36.986;-121.936;2023-04-07T10:30:19;101387.72;;;13.58;94.83
22333;BME280;11334;36.986;-121.936;2023-04-07T10:32:50;101399.88;;;13.60;95.24
22333;BME280;11334;36.986;-121.936;2023-04-07T10:35:17;101396.88;;;13.56;94.63
22333;BME280;11334;36.986;-121.936;2023-04-07T10:40:34;101389.16;;;13.45;96.73
22333;BME280;11334;36.986;-121.936;2023-04-07T10:43:01;101381.88;;;13.47;97.83
22333;BME280;11334;36.986;-121.936;2023-04-07T10:48:17;101364.22;;;13.46;97.72
22333;BME280;11334;36.986;-121.936;2023-04-07T10:53:35;101382.50;;;13.49;98.86
22333;BME280;11334;36.986;-121.936;2023-04-07T10:56:01;101351.44;;;13.24;99.15
22333;BME280;11334;36.986;-121.936;2023-04-07T10:58:31;101381.97;;;13.37;99.72
22333;BME280;11334;36.986;-121.936;2023-04-07T11:03:35;101390.81;;;13.46;99.66
22333;BME280;11334;36.986;-121.936;2023-04-07T11:06:07;101388.84;;;13.48;99.98
22333;BME280;11334;36.986;-121.936;2023-04-07T11:08:34;101394.03;;;13.49;100.00
22333;BME280;11334;36.986;-121.936;2023-04-07T11:11:01;101386.34;;;13.46;99.68
22333;BME280;11334;36.986;-121.936;2023-04-07T11:13:44;101385.16;;;13.41;100.00
22333;BME280;11334;36.986;-121.936;2023-04-07T11:16:11;101385.00;;;13.42;100.00
22333;BME280;11334;36.986;-121.936;2023-04-07T11:18:39;101383.16;;;13.43;100.00
22333;BME280;11334;36.986;-121.936;2023-04-07T11:21:07;101376.84;;;13.44;100.00
22333;BME280;11334;36.986;-121.936;2023-04-07T11:23:51;101369.03;;;13.42;100.00
22333;BME280;11334;36.986;-121.936;2023-04-07T11:26:18;101376.38;;;13.48;100.00
22333;BME280;11334;36.986;-121.936;2023-04-07T11:28:49;101380.72;;;13.49;100.00
22333;BME280;11334;36.986;-121.936;2023-04-07T11:31:28;101371.72;;;13.50;100.00
22333;BME280;11334;36.986;-121.936;2023-04-07T11:33:57;101369.56;;;13.54;100.00
22333;BME280;11334;36.986;-121.936;2023-04-07T11:36:32;101364.03;;;13.39;100.00
22333;BME280;11334;36.986;-121.936;2023-04-07T11:39:00;101379.84;;;13.49;100.00
22333;BME280;11334;36.986;-121.936;2023-04-07T11:41:29;101378.91;;;13.57;100.00
22333;BME280;11334;36.986;-121.936;2023-04-07T11:44:09;101380.56;;;13.58;100.00
22333;BME280;11334;36.986;-121.936;2023-04-07T11:46:58;101378.19;;;13.48;100.00
22333;BME280;11334;36.986;-121.936;2023-04-07T11:49:24;101368.84;;;13.44;100.00
22333;BME280;11334;36.986;-121.936;2023-04-07T11:52:03;101363.59;;;13.52;100.00
22333;BME280;11334;36.986;-121.936;2023-04-07T11:54:45;101355.41;;;13.53;100.00
22333;BME280;11334;36.986;-121.936;2023-04-07T11:57:12;101351.94;;;13.53;100.00
22333;BME280;11334;36.986;-121.936;2023-04-07T11:59:41;101352.28;;;13.57;100.00
22333;BME280;11334;36.986;-121.936;2023-04-07T12:02:08;101356.31;;;13.61;100.00
22333;BME280;11334;36.986;-121.936;2023-04-07T12:04:34;101357.47;;;13.59;100.00
22333;BME280;11334;36.986;-121.936;2023-04-07T12:07:10;101352.28;;;13.57;100.00
22333;BME280;11334;36.986;-121.936;2023-04-07T12:09:36;101347.47;;;13.61;100.00
22333;BME280;11334;36.986;-121.936;2023-04-07T12:12:04;101337.31;;;13.57;100.00
22333;BME280;11334;36.986;-121.936;2023-04-07T12:14:32;101341.97;;;13.55;100.00
22333;BME280;11334;36.986;-121.936;2023-04-07T12:16:58;101337.31;;;13.57;100.00
22333;BME280;11334;36.986;-121.936;2023-04-07T12:19:29;101340.47;;;13.52;100.00
22333;BME280;11334;36.986;-121.936;2023-04-07T12:21:58;101332.97;;;13.56;100.00
22333;BME280;11334;36.986;-121.936;2023-04-07T12:24:24;101340.81;;;13.57;100.00
22333;BME280;11334;36.986;-121.936;2023-04-07T12:26:50;101347.63;;;13.59;100.00
22333;BME280;11334;36.986;-121.936;2023-04-07T12:29:16;101340.97;;;13.63;100.00
22333;BME280;11334;36.986;-121.936;2023-04-07T12:31:44;101335.84;;;13.62;100.00
22333;BME280;11334;36.986;-121.936;2023-04-07T12:34:11;101347.31;;;13.62;100.00
22333;BME280;11334;36.986;-121.936;2023-04-07T12:36:37;101344.16;;;13.67;100.00
22333;BME280;11334;36.986;-121.936;2023-04-07T12:39:03;101347.44;;;13.53;100.00
22333;BME280;11334;36.986;-121.936;2023-04-07T12:41:30;101343.63;;;13.56;100.00